createdAt,value
2023-03-24T00:04:34.768Z,31.80
2023-03-24T00:07:05.305Z,32.00
2023-03-24T00:09:33.984Z,32.40
2023-03-24T00:12:02.285Z,33.00
2023-03-24T00:14:38.940Z,34.10
2023-03-24T00:17:12.866Z,33.30
2023-03-24T00:19:41.576Z,32.80
2023-03-24T00:22:14.781Z,31.80
2023-03-24T00:24:47.237Z,30.80
2023-03-24T00:27:17.793Z,30.00
2023-03-24T00:29:47.411Z,32.00
2023-03-24T00:32:16.189Z,33.10
2023-03-24T00:34:44.584Z,32.90
2023-03-24T00:37:13.411Z,32.50
2023-03-24T00:39:43.237Z,30.30
2023-03-24T00:42:19.017Z,30.70
2023-03-24T00:44:48.082Z,31.30
2023-03-24T00:47:18.116Z,30.30
2023-03-24T00:49:46.392Z,29.10
2023-03-24T00:52:20.522Z,29.30
2023-03-24T00:54:58.410Z,31.60
2023-03-24T00:57:30.072Z,30.40
2023-03-24T01:00:09.519Z,30.00
2023-03-24T01:02:39.389Z,29.20
2023-03-24T01:05:09.694Z,29.60
2023-03-24T01:07:41.815Z,30.80
2023-03-24T01:10:13.283Z,29.00
2023-03-24T01:12:45.428Z,28.90
2023-03-24T01:15:16.318Z,31.00
2023-03-24T01:17:47.449Z,31.30
2023-03-24T01:20:16.222Z,30.50
2023-03-24T01:22:46.430Z,30.60
2023-03-24T01:25:22.042Z,29.60
2023-03-24T01:27:54.215Z,29.20
2023-03-24T01:30:24.821Z,29.80
2023-03-24T01:32:53.862Z,31.00
2023-03-24T01:43:02.280Z,29.90
2023-03-24T01:45:40.417Z,29.90
2023-03-24T01:48:40.991Z,30.70
2023-03-24T01:51:14.008Z,30.30
2023-03-24T01:55:39.354Z,32.40
2023-03-24T01:58:09.184Z,31.10
2023-03-24T02:00:49.053Z,30.50
2023-03-24T02:03:34.352Z,30.70
2023-03-24T02:06:03.726Z,31.00
2023-03-24T02:08:38.502Z,31.00
2023-03-24T02:11:07.098Z,29.90
2023-03-24T02:13:42.006Z,30.90
2023-03-24T02:16:20.238Z,29.90
2023-03-24T02:19:15.279Z,30.30
2023-03-24T02:21:59.506Z,31.10
2023-03-24T02:24:31.110Z,31.40
2023-03-24T02:27:14.683Z,30.70
2023-03-24T02:29:56.395Z,31.00
2023-03-24T02:32:43.747Z,29.90
2023-03-24T02:35:24.501Z,30.00
2023-03-24T02:38:12.114Z,29.40
2023-03-24T02:40:43.627Z,29.30
2023-03-24T02:43:28.551Z,29.80
2023-03-24T02:46:01.378Z,29.90
2023-03-24T02:48:38.426Z,28.90
2023-03-24T02:51:22.128Z,29.40
2023-03-24T02:54:08.849Z,29.20
2023-03-24T02:56:53.111Z,29.30
2023-03-24T02:59:53.713Z,29.10
2023-03-24T03:02:45.695Z,27.60
2023-03-24T03:05:32.758Z,30.80
2023-03-24T03:08:07.107Z,29.50
2023-03-24T03:10:38.509Z,28.70
2023-03-24T03:13:25.216Z,30.30
2023-03-24T03:15:55.991Z,29.40
2023-03-24T03:18:29.487Z,29.20
2023-03-24T03:21:07.504Z,28.20
2023-03-24T03:23:38.961Z,29.30
2023-03-24T03:26:14.120Z,29.20
2023-03-24T03:28:50.581Z,28.90
2023-03-24T03:31:23.974Z,29.90
2023-03-24T03:34:00.102Z,30.60
2023-03-24T03:36:34.329Z,31.30
2023-03-24T03:39:16.322Z,30.20
2023-03-24T03:41:45.682Z,28.90
2023-03-24T03:44:14.493Z,29.40
2023-03-24T03:46:48.246Z,28.40
2023-03-24T03:49:22.096Z,28.00
2023-03-24T03:51:57.632Z,29.90
2023-03-24T03:54:26.457Z,28.10
2023-03-24T03:56:55.129Z,27.40
2023-03-24T03:59:31.381Z,27.70
2023-03-24T04:02:07.787Z,28.70
2023-03-24T04:05:14.415Z,26.60
2023-03-24T04:07:52.555Z,29.10
2023-03-24T04:11:16.878Z,28.40
2023-03-24T04:14:34.980Z,27.10
2023-03-24T04:17:45.955Z,26.50
2023-03-24T04:20:32.896Z,26.70
2023-03-24T04:23:09.629Z,26.80
2023-03-24T04:26:21.173Z,26.80
2023-03-24T04:28:58.421Z,25.30
2023-03-24T04:31:43.408Z,24.80
2023-03-24T04:34:39.593Z,25.20
2023-03-24T04:37:19.715Z,27.20
2023-03-24T04:40:11.242Z,27.50
2023-03-24T04:42:47.009Z,26.80
2023-03-24T04:45:15.797Z,28.10
2023-03-24T04:48:15.007Z,26.50
2023-03-24T04:51:01.464Z,25.70
2023-03-24T04:53:37.296Z,25.40
2023-03-24T04:56:24.721Z,25.70
2023-03-24T04:59:07.567Z,25.50
2023-03-24T05:01:37.885Z,25.90
2023-03-24T05:04:26.023Z,27.20
2023-03-24T05:06:54.791Z,25.60
2023-03-24T05:09:26.036Z,26.60
2023-03-24T05:12:01.509Z,27.20
2023-03-24T05:14:35.627Z,27.50
2023-03-24T05:17:06.023Z,28.10
2023-03-24T05:19:42.293Z,28.50
2023-03-24T05:22:11.509Z,28.00
2023-03-24T05:24:40.910Z,28.30
2023-03-24T05:27:12.121Z,29.20
2023-03-24T05:29:40.632Z,27.50
2023-03-24T05:32:16.300Z,29.10
2023-03-24T05:34:45.765Z,29.00
2023-03-24T05:37:17.923Z,28.70
2023-03-24T05:39:53.279Z,28.50
2023-03-24T05:42:43.348Z,28.80
2023-03-24T05:45:13.236Z,27.20
2023-03-24T05:47:42.233Z,27.30
2023-03-24T05:50:11.086Z,26.90
2023-03-24T05:52:42.799Z,27.70
2023-03-24T05:55:32.218Z,26.90
2023-03-24T05:58:08.773Z,27.20
2023-03-24T06:00:43.572Z,27.30
2023-03-24T06:03:17.715Z,26.10
2023-03-24T06:05:58.605Z,26.90
2023-03-24T06:08:34.149Z,26.50
2023-03-24T06:11:05.700Z,28.00
2023-03-24T06:13:35.473Z,28.10
2023-03-24T06:16:07.847Z,27.10
2023-03-24T06:18:43.505Z,24.90
2023-03-24T06:21:19.429Z,23.60
2023-03-24T06:23:58.778Z,23.80
2023-03-24T06:26:32.106Z,21.90
2023-03-24T06:29:02.719Z,22.00
2023-03-24T06:31:37.496Z,19.70
2023-03-24T06:34:07.031Z,20.40
2023-03-24T06:36:35.528Z,20.10
2023-03-24T06:39:06.376Z,19.30
2023-03-24T06:41:36.034Z,19.30
2023-03-24T06:44:10.163Z,20.30
2023-03-24T06:46:40.954Z,22.50
2023-03-24T06:49:09.697Z,25.30
2023-03-24T06:51:37.965Z,28.00
2023-03-24T06:54:06.473Z,27.00
2023-03-24T06:56:36.621Z,24.40
2023-03-24T06:59:05.830Z,20.50
2023-03-24T07:01:36.392Z,18.90
2023-03-24T07:04:26.227Z,20.00
2023-03-24T07:07:30.980Z,19.20
2023-03-24T07:10:22.145Z,19.10
2023-03-24T07:15:22.033Z,18.50
2023-03-24T07:17:55.548Z,21.50
2023-03-24T07:20:48.560Z,19.60
2023-03-24T07:23:21.993Z,18.70
2023-03-24T07:26:10.800Z,17.20
2023-03-24T07:29:11.885Z,18.20
2023-03-24T07:32:08.274Z,18.00
2023-03-24T07:34:37.990Z,19.10
2023-03-24T07:37:06.631Z,19.10
2023-03-24T07:39:35.123Z,18.70
2023-03-24T07:42:04.872Z,18.90
2023-03-24T07:45:09.253Z,17.20
2023-03-24T07:47:39.190Z,15.30
2023-03-24T07:50:12.449Z,20.80
2023-03-24T07:52:41.965Z,19.30
2023-03-24T07:55:13.002Z,12.80
2023-03-24T07:58:10.215Z,9.90
2023-03-24T08:00:44.983Z,8.60
2023-03-24T08:03:28.103Z,8.80
2023-03-24T08:06:47.682Z,9.30
2023-03-24T08:09:17.944Z,8.80
2023-03-24T08:11:46.505Z,9.50
2023-03-24T08:14:14.993Z,10.40
2023-03-24T08:16:46.422Z,10.10
2023-03-24T08:19:17.304Z,10.00
2023-03-24T08:21:48.563Z,8.90
2023-03-24T08:24:17.735Z,7.40
2023-03-24T08:26:51.109Z,7.60
2023-03-24T08:29:19.683Z,9.00
2023-03-24T08:31:48.001Z,9.00
2023-03-24T08:34:17.300Z,31.60
2023-03-24T08:36:46.694Z,11.00
2023-03-24T08:39:15.497Z,7.70
2023-03-24T08:41:43.744Z,7.30
2023-03-24T08:44:14.056Z,10.50
2023-03-24T08:46:43.512Z,7.30
2023-03-24T08:49:11.913Z,6.00
2023-03-24T08:51:40.143Z,6.10
2023-03-24T08:54:09.711Z,6.00
2023-03-24T08:56:38.062Z,5.80
2023-03-24T08:59:07.136Z,5.30
2023-03-24T09:01:35.758Z,5.40
2023-03-24T09:04:04.262Z,6.10
2023-03-24T09:06:32.964Z,6.30
2023-03-24T09:09:01.592Z,5.80
2023-03-24T09:11:38.680Z,5.10
2023-03-24T09:14:11.120Z,5.80
2023-03-24T09:16:39.494Z,6.30
2023-03-24T09:19:34.376Z,5.70
2023-03-24T09:22:07.365Z,6.00
2023-03-24T09:24:35.880Z,6.50
2023-03-24T09:27:04.508Z,5.90
2023-03-24T09:29:33.309Z,6.00
2023-03-24T09:32:05.214Z,7.30
2023-03-24T09:34:33.960Z,6.80
2023-03-24T09:37:02.245Z,5.30
2023-03-24T09:39:32.471Z,6.10
2023-03-24T09:42:06.187Z,6.10
2023-03-24T09:44:38.214Z,6.00
2023-03-24T09:47:17.164Z,5.30
2023-03-24T09:49:51.184Z,5.70
2023-03-24T09:52:50.890Z,6.60
2023-03-24T09:55:23.298Z,6.00
2023-03-24T09:57:52.073Z,5.80
2023-03-24T10:00:49.069Z,5.40
2023-03-24T10:03:23.356Z,5.90
2023-03-24T10:06:09.205Z,6.00
2023-03-24T10:08:44.823Z,5.50
2023-03-24T10:11:25.809Z,5.70
2023-03-24T10:14:12.795Z,5.70
2023-03-24T10:17:06.559Z,6.80
2023-03-24T10:19:44.889Z,5.80
2023-03-24T10:22:32.894Z,5.70
2023-03-24T10:25:16.700Z,12.00
2023-03-24T10:27:58.240Z,6.60
2023-03-24T10:30:40.000Z,8.10
2023-03-24T10:33:13.484Z,6.10
2023-03-24T10:36:06.429Z,5.40
2023-03-24T10:38:45.706Z,5.10
2023-03-24T10:41:19.447Z,5.20
2023-03-24T10:43:48.679Z,5.70
2023-03-24T10:46:22.470Z,5.10
2023-03-24T10:49:12.316Z,5.40
2023-03-24T10:51:49.870Z,4.70
2023-03-24T10:54:26.195Z,4.40
2023-03-24T10:56:59.346Z,4.60
2023-03-24T10:59:32.355Z,4.90
2023-03-24T11:02:11.622Z,4.10
2023-03-24T11:04:44.203Z,5.00
2023-03-24T11:07:12.706Z,4.20
2023-03-24T11:09:42.450Z,4.00
2023-03-24T11:12:44.984Z,4.50
2023-03-24T11:15:21.787Z,3.70
2023-03-24T11:18:25.764Z,4.30
2023-03-24T11:21:08.200Z,5.10
2023-03-24T11:23:40.746Z,5.40
2023-03-24T11:26:19.719Z,6.20
2023-03-24T11:28:50.272Z,6.90
2023-03-24T11:31:39.417Z,5.70
2023-03-24T11:34:20.106Z,6.50
2023-03-24T11:36:49.762Z,7.00
2023-03-24T11:39:19.759Z,6.30
2023-03-24T11:41:52.716Z,5.90
2023-03-24T11:44:25.424Z,8.10
2023-03-24T11:46:56.434Z,5.00
2023-03-24T11:49:38.640Z,3.70
2023-03-24T11:52:10.163Z,7.80
2023-03-24T11:54:38.705Z,5.50
2023-03-24T11:57:12.763Z,8.40
2023-03-24T11:59:58.399Z,4.70
2023-03-24T12:02:26.665Z,3.80
2023-03-24T12:05:14.649Z,4.80
2023-03-24T12:08:13.819Z,4.30
2023-03-24T12:11:01.462Z,4.20
2023-03-24T12:13:39.453Z,4.60
2023-03-24T12:16:29.959Z,5.00
2023-03-24T12:19:21.468Z,5.10
2023-03-24T12:22:00.986Z,6.00
2023-03-24T12:25:04.999Z,4.70
2023-03-24T12:27:52.665Z,4.50
2023-03-24T12:30:51.881Z,3.80
2023-03-24T12:33:39.524Z,4.10
2023-03-24T12:36:42.420Z,4.20
2023-03-24T12:39:32.237Z,5.10
2023-03-24T12:42:16.534Z,5.20
2023-03-24T12:45:08.476Z,4.40
2023-03-24T12:47:41.768Z,4.40
2023-03-24T12:53:08.400Z,4.90
2023-03-24T12:55:41.711Z,5.10
2023-03-24T12:58:32.821Z,4.80
2023-03-24T13:01:15.089Z,5.00
2023-03-24T13:04:28.413Z,7.60
2023-03-24T13:07:14.884Z,5.40
2023-03-24T13:09:56.243Z,5.40
2023-03-24T13:12:26.346Z,5.40
2023-03-24T13:15:12.102Z,6.30
2023-03-24T13:18:09.084Z,9.40
2023-03-24T13:20:48.896Z,5.30
2023-03-24T13:23:28.374Z,4.50
2023-03-24T13:26:24.660Z,11.50
2023-03-24T13:29:38.698Z,5.10
2023-03-24T13:32:25.322Z,5.00
2023-03-24T13:35:10.331Z,12.60
2023-03-24T13:37:51.362Z,8.20
2023-03-24T13:40:25.739Z,9.00
2023-03-24T13:42:58.674Z,5.60
2023-03-24T13:45:49.779Z,7.10
2023-03-24T13:48:22.958Z,13.80
2023-03-24T13:50:58.779Z,16.50
2023-03-24T13:53:40.565Z,13.30
2023-03-24T13:56:09.272Z,11.10
2023-03-24T13:58:59.528Z,15.60
2023-03-24T14:01:39.479Z,7.40
2023-03-24T14:04:23.402Z,5.00
2023-03-24T14:06:56.655Z,4.40
2023-03-24T14:09:29.892Z,4.70
2023-03-24T14:13:36.264Z,5.10
2023-03-24T14:16:33.896Z,4.80
2023-03-24T14:22:45.268Z,6.50
2023-03-24T14:25:16.628Z,10.80
2023-03-24T14:30:38.432Z,138.10
2023-03-24T14:33:53.015Z,250.40
2023-03-24T14:36:40.026Z,89.90
2023-03-24T14:39:24.098Z,114.60
2023-03-24T14:41:53.226Z,72.50
2023-03-24T14:44:47.445Z,58.30
2023-03-24T14:47:24.049Z,140.10
2023-03-24T14:49:54.111Z,98.70
2023-03-24T14:52:39.995Z,41.10
2023-03-24T14:55:40.333Z,20.00
2023-03-24T14:58:31.092Z,48.00
2023-03-24T15:01:26.925Z,60.20
2023-03-24T15:04:05.343Z,32.30
2023-03-24T15:06:34.367Z,18.10
2023-03-24T15:09:28.277Z,14.80
2023-03-24T15:12:02.059Z,31.50
2023-03-24T15:14:36.406Z,63.90
2023-03-24T15:17:09.050Z,39.40
2023-03-24T15:19:37.665Z,32.40
2023-03-24T15:22:13.462Z,27.50
2023-03-24T15:24:42.776Z,24.30
2023-03-24T15:27:17.784Z,24.70
2023-03-24T15:29:47.205Z,22.80
2023-03-24T15:32:46.467Z,30.80
2023-03-24T15:35:22.587Z,35.90
2023-03-24T15:37:53.064Z,33.10
2023-03-24T15:40:27.307Z,32.90
2023-03-24T15:43:05.417Z,33.00
2023-03-24T15:46:04.796Z,34.60
2023-03-24T15:48:41.274Z,27.10
2023-03-24T15:51:15.519Z,31.00
2023-03-24T15:53:58.332Z,27.40
2023-03-24T15:56:27.658Z,30.70
2023-03-24T15:59:22.776Z,24.40
2023-03-24T16:01:55.891Z,32.40
2023-03-24T16:04:28.888Z,22.80
2023-03-24T16:06:58.016Z,19.60
2023-03-24T16:09:27.831Z,21.40
2023-03-24T16:11:56.524Z,20.40
2023-03-24T16:14:30.784Z,26.90
2023-03-24T16:17:01.186Z,31.10
2023-03-24T16:19:29.795Z,29.70
2023-03-24T16:21:58.124Z,25.20
2023-03-24T16:24:28.478Z,24.10
2023-03-24T16:26:57.027Z,24.30
2023-03-24T16:29:25.565Z,32.90
2023-03-24T16:31:56.320Z,55.80
2023-03-24T16:34:24.696Z,31.60
2023-03-24T16:36:54.611Z,24.60
2023-03-24T16:39:27.763Z,20.20
2023-03-24T16:42:01.366Z,17.40
2023-03-24T16:44:29.943Z,20.10
2023-03-24T16:46:58.249Z,38.40
2023-03-24T16:49:27.464Z,52.10
2023-03-24T16:51:56.279Z,41.30
2023-03-24T16:54:25.614Z,38.50
2023-03-24T16:56:54.560Z,39.70
2023-03-24T16:59:27.399Z,32.60
2023-03-24T17:01:56.519Z,28.70
2023-03-24T17:04:27.530Z,26.80
2023-03-24T17:09:28.889Z,43.80
2023-03-24T17:11:57.663Z,44.40
2023-03-24T17:14:33.449Z,39.70
2023-03-24T17:17:04.581Z,29.50
2023-03-24T17:19:33.229Z,21.70
2023-03-24T17:22:06.806Z,17.90
2023-03-24T17:24:38.321Z,15.10
2023-03-24T17:27:18.917Z,27.90
2023-03-24T17:29:51.308Z,18.40
2023-03-24T17:32:22.385Z,11.20
2023-03-24T17:37:27.161Z,11.90
2023-03-24T17:40:01.150Z,15.70
2023-03-24T17:42:29.587Z,13.80
2023-03-24T17:44:58.109Z,14.60
2023-03-24T17:47:55.621Z,20.90
2023-03-24T17:50:38.864Z,23.20
2023-03-24T17:53:16.212Z,23.40
2023-03-24T17:55:44.883Z,19.70
2023-03-24T17:58:13.449Z,17.90
2023-03-24T18:00:42.294Z,21.50
2023-03-24T18:03:12.061Z,22.10
2023-03-24T18:05:44.945Z,30.70
2023-03-24T18:08:13.753Z,27.00
2023-03-24T18:10:45.349Z,22.10
2023-03-24T18:13:15.662Z,22.80
2023-03-24T18:16:39.902Z,20.40
2023-03-24T18:19:09.188Z,20.50
2023-03-24T18:21:39.949Z,19.00
2023-03-24T18:24:34.811Z,18.70
2023-03-24T18:27:04.185Z,17.40
2023-03-24T18:29:33.422Z,17.80
2023-03-24T18:32:05.247Z,19.00
2023-03-24T18:34:39.135Z,18.00
2023-03-24T18:37:07.766Z,18.40
2023-03-24T18:39:36.656Z,18.20
2023-03-24T18:42:05.975Z,21.70
2023-03-24T18:44:34.825Z,18.80
2023-03-24T18:47:07.883Z,16.30
2023-03-24T18:49:41.698Z,14.90
2023-03-24T18:52:10.812Z,14.20
2023-03-24T18:54:40.856Z,13.60
2023-03-24T18:57:09.324Z,13.80
2023-03-24T18:59:45.827Z,14.10
2023-03-24T19:02:16.376Z,13.70
2023-03-24T19:04:47.560Z,13.20
2023-03-24T19:07:24.698Z,13.90
2023-03-24T19:09:54.696Z,13.30
2023-03-24T19:12:23.126Z,13.20
2023-03-24T19:14:54.306Z,13.00
2023-03-24T19:17:27.666Z,12.40
2023-03-24T19:19:58.434Z,12.90
2023-03-24T19:22:27.493Z,12.00
2023-03-24T19:24:56.228Z,12.20
2023-03-24T19:27:31.084Z,12.30
2023-03-24T19:30:00.049Z,12.50
2023-03-24T19:32:28.406Z,12.90
2023-03-24T19:34:57.284Z,12.60
2023-03-24T19:37:26.644Z,13.50
2023-03-24T19:39:55.077Z,15.50
2023-03-24T19:42:25.744Z,13.40
2023-03-24T19:44:54.983Z,14.30
2023-03-24T19:47:24.283Z,13.20
2023-03-24T19:49:56.974Z,13.20
2023-03-24T19:52:26.501Z,13.90
2023-03-24T19:54:54.898Z,18.10
2023-03-24T19:57:23.336Z,15.90
2023-03-24T19:59:51.754Z,13.70
2023-03-24T20:02:22.035Z,13.90
2023-03-24T20:04:51.141Z,13.10
2023-03-24T20:07:20.358Z,13.60
2023-03-24T20:09:48.794Z,13.20
2023-03-24T20:12:17.251Z,12.90
2023-03-24T20:14:46.679Z,13.10
2023-03-24T20:17:18.106Z,12.90
2023-03-24T20:19:47.895Z,12.70
2023-03-24T20:22:16.401Z,13.70
2023-03-24T20:24:48.360Z,12.40
2023-03-24T20:27:18.977Z,13.70
2023-03-24T20:30:13.282Z,14.40
2023-03-24T20:32:42.312Z,13.80
2023-03-24T20:35:11.988Z,13.10
2023-03-24T20:37:40.645Z,12.40
2023-03-24T20:40:14.925Z,13.30
2023-03-24T20:42:44.349Z,13.00
2023-03-24T20:45:12.706Z,13.50
2023-03-24T20:47:44.675Z,14.20
2023-03-24T20:50:17.382Z,15.20
2023-03-24T20:55:39.286Z,13.80
2023-03-24T21:05:51.719Z,14.80
2023-03-24T21:08:24.638Z,15.60
2023-03-24T21:11:44.036Z,14.70
2023-03-24T21:14:12.749Z,14.70
2023-03-24T21:16:40.997Z,14.90
2023-03-24T21:19:13.623Z,13.90
2023-03-24T21:21:45.922Z,14.10
2023-03-24T21:24:15.659Z,13.70
2023-03-24T21:26:46.812Z,14.10
2023-03-24T21:29:19.289Z,13.60
2023-03-24T21:31:48.707Z,13.60
2023-03-24T21:34:17.502Z,14.00
2023-03-24T21:36:49.791Z,14.60
2023-03-24T21:39:18.906Z,14.40
2023-03-24T21:41:48.264Z,13.80
2023-03-24T21:44:25.534Z,15.80
2023-03-24T21:46:54.738Z,14.30
2023-03-24T21:49:23.748Z,15.50
2023-03-24T21:51:55.199Z,17.10
2023-03-24T21:54:26.927Z,16.40
2023-03-24T21:56:55.562Z,15.70
2023-03-24T21:59:24.587Z,16.90
2023-03-24T22:01:57.693Z,16.30
2023-03-24T22:04:27.917Z,17.20
2023-03-24T22:07:22.798Z,17.10
2023-03-24T22:09:52.566Z,18.40
2023-03-24T22:12:20.964Z,16.40
2023-03-24T22:14:52.829Z,17.40
2023-03-24T22:17:23.428Z,17.50
2023-03-24T22:19:53.588Z,14.90
2023-03-24T22:22:27.600Z,18.30
2023-03-24T22:24:56.462Z,16.20
2023-03-24T22:27:25.086Z,17.40
2023-03-24T22:29:53.379Z,15.70
2023-03-24T22:32:21.548Z,17.80
2023-03-24T22:34:55.686Z,17.70
2023-03-24T22:37:54.652Z,16.70
2023-03-24T22:40:48.251Z,16.30
2023-03-24T22:43:18.059Z,15.70
2023-03-24T22:45:46.376Z,16.00
2023-03-24T22:48:17.936Z,16.70
2023-03-24T22:50:48.562Z,17.00
2023-03-24T22:53:18.368Z,16.90
2023-03-24T22:55:47.409Z,16.80
2023-03-24T22:58:16.143Z,17.00
2023-03-24T23:00:47.033Z,15.80
2023-03-24T23:03:15.811Z,16.80
2023-03-24T23:05:45.739Z,16.30
2023-03-24T23:08:15.457Z,16.20
2023-03-24T23:10:44.572Z,15.90
2023-03-24T23:13:19.139Z,16.30
2023-03-24T23:16:07.982Z,15.10
2023-03-24T23:18:38.606Z,15.60
2023-03-24T23:21:09.446Z,15.90
2023-03-24T23:23:38.467Z,16.40
2023-03-24T23:26:07.221Z,16.40
2023-03-24T23:28:37.345Z,16.20
2023-03-24T23:31:16.484Z,16.00
2023-03-24T23:33:45.271Z,15.50
2023-03-24T23:36:19.138Z,15.20
2023-03-24T23:38:54.863Z,15.50
2023-03-24T23:41:24.777Z,15.10
2023-03-24T23:43:53.419Z,14.60
2023-03-24T23:46:24.078Z,15.20
2023-03-24T23:48:53.003Z,16.40
2023-03-24T23:51:25.005Z,15.20
2023-03-24T23:53:53.321Z,15.00
2023-03-24T23:56:23.068Z,15.10
2023-03-24T23:58:52.465Z,13.70
